createdAt,value
2023-05-22T00:00:18.326Z,12.05
2023-05-22T00:00:53.248Z,11.80
2023-05-22T00:01:26.798Z,11.73
2023-05-22T00:01:59.739Z,12.00
2023-05-22T00:02:33.325Z,11.65
2023-05-22T00:03:06.057Z,12.38
2023-05-22T00:03:39.105Z,12.18
2023-05-22T00:04:13.662Z,11.90
2023-05-22T00:04:47.092Z,11.70
2023-05-22T00:05:20.718Z,12.05
2023-05-22T00:05:53.494Z,11.98
2023-05-22T00:06:26.283Z,12.45
2023-05-22T00:06:58.802Z,11.95
2023-05-22T00:07:31.266Z,12.40
2023-05-22T00:08:05.090Z,11.63
2023-05-22T00:08:38.015Z,12.15
2023-05-22T00:09:10.388Z,12.45
2023-05-22T00:09:42.874Z,12.00
2023-05-22T00:10:15.652Z,10.98
2023-05-22T00:10:48.235Z,12.18
2023-05-22T00:11:21.290Z,12.35
2023-05-22T00:11:53.887Z,12.18
2023-05-22T00:12:26.194Z,12.02
2023-05-22T00:12:58.581Z,12.10
2023-05-22T00:13:31.957Z,12.15
2023-05-22T00:14:04.284Z,12.13
2023-05-22T00:14:36.802Z,12.75
2023-05-22T00:15:09.737Z,12.48
2023-05-22T00:15:42.039Z,12.02
2023-05-22T00:16:14.386Z,12.32
2023-05-22T00:16:48.609Z,12.43
2023-05-22T00:17:21.123Z,12.40
2023-05-22T00:17:54.498Z,12.70
2023-05-22T00:18:27.313Z,13.07
2023-05-22T00:19:01.267Z,13.18
2023-05-22T00:19:33.852Z,12.88
2023-05-22T00:20:11.219Z,13.57
2023-05-22T00:20:46.914Z,15.55
2023-05-22T00:21:20.145Z,15.05
2023-05-22T00:21:52.703Z,14.32
2023-05-22T00:22:25.026Z,13.45
2023-05-22T00:22:58.556Z,13.93
2023-05-22T00:23:31.010Z,14.38
2023-05-22T00:24:04.315Z,13.70
2023-05-22T00:24:36.679Z,13.07
2023-05-22T00:25:09.640Z,14.35
2023-05-22T00:25:42.311Z,13.80
2023-05-22T00:26:15.963Z,14.15
2023-05-22T00:26:49.413Z,15.18
2023-05-22T00:27:21.817Z,15.23
2023-05-22T00:27:54.365Z,14.75
2023-05-22T00:28:26.972Z,15.85
2023-05-22T00:28:59.324Z,16.98
2023-05-22T00:29:32.088Z,23.60
2023-05-22T00:30:04.777Z,22.15
2023-05-22T00:30:37.956Z,22.10
2023-05-22T00:31:10.509Z,22.17
2023-05-22T00:31:43.044Z,22.75
2023-05-22T00:32:15.546Z,20.23
2023-05-22T00:32:47.970Z,18.38
2023-05-22T00:33:21.481Z,18.67
2023-05-22T00:33:53.850Z,18.13
2023-05-22T00:34:26.410Z,16.83
2023-05-22T00:34:58.894Z,17.17
2023-05-22T00:35:31.285Z,16.80
2023-05-22T00:36:04.923Z,16.38
2023-05-22T00:36:37.396Z,18.33
2023-05-22T00:37:11.051Z,18.98
2023-05-22T00:37:45.258Z,17.70
2023-05-22T00:38:32.438Z,19.80
2023-05-22T00:39:05.099Z,35.08
2023-05-22T00:39:38.139Z,31.33
2023-05-22T00:40:11.215Z,28.33
2023-05-22T00:40:43.542Z,27.10
2023-05-22T00:41:16.137Z,26.10
2023-05-22T00:41:48.697Z,24.30
2023-05-22T00:42:21.368Z,21.63
2023-05-22T00:42:54.028Z,20.40
2023-05-22T00:43:27.379Z,19.60
2023-05-22T00:44:00.342Z,23.00
2023-05-22T00:44:32.828Z,23.17
2023-05-22T00:45:06.883Z,24.65
2023-05-22T00:45:39.401Z,26.42
2023-05-22T00:46:12.884Z,25.63
2023-05-22T00:46:45.648Z,24.08
2023-05-22T00:47:18.025Z,25.55
2023-05-22T00:47:51.021Z,26.20
2023-05-22T00:48:24.321Z,25.73
2023-05-22T00:48:59.015Z,28.23
2023-05-22T00:49:31.543Z,27.60
2023-05-22T00:50:05.875Z,26.08
2023-05-22T00:50:38.490Z,28.35
2023-05-22T00:51:12.592Z,26.83
2023-05-22T00:51:45.046Z,24.90
2023-05-22T00:52:18.062Z,24.88
2023-05-22T00:52:50.667Z,25.30
2023-05-22T00:53:24.445Z,26.40
2023-05-22T00:53:57.290Z,27.25
2023-05-22T00:54:30.868Z,25.58
2023-05-22T00:55:04.194Z,25.55
2023-05-22T00:55:36.936Z,24.75
2023-05-22T00:56:09.455Z,24.58
2023-05-22T00:56:42.365Z,24.67
2023-05-22T00:57:15.162Z,24.87
2023-05-22T00:57:48.109Z,24.67
2023-05-22T00:58:20.678Z,25.17
2023-05-22T00:58:53.193Z,25.55
2023-05-22T00:59:25.552Z,25.73
2023-05-22T00:59:57.896Z,24.40
2023-05-22T01:00:30.717Z,26.23
2023-05-22T01:01:03.142Z,24.80
2023-05-22T01:01:38.896Z,24.85
2023-05-22T01:02:11.850Z,26.77
2023-05-22T01:02:44.584Z,26.07
2023-05-22T01:03:17.865Z,24.88
2023-05-22T01:03:52.391Z,25.88
2023-05-22T01:04:25.627Z,24.85
2023-05-22T01:04:58.460Z,25.15
2023-05-22T01:05:31.001Z,25.00
2023-05-22T01:06:03.739Z,25.48
2023-05-22T01:06:36.138Z,25.20
2023-05-22T01:07:08.583Z,24.08
2023-05-22T01:07:41.123Z,23.80
2023-05-22T01:08:13.703Z,24.93
2023-05-22T01:08:46.283Z,23.67
2023-05-22T01:09:18.792Z,22.52
2023-05-22T01:09:53.068Z,22.10
2023-05-22T01:10:26.362Z,23.33
2023-05-22T01:11:08.511Z,23.63
2023-05-22T01:11:46.535Z,29.80
2023-05-22T01:12:31.702Z,30.65
2023-05-22T01:13:18.939Z,34.40
2023-05-22T01:13:55.263Z,39.10
2023-05-22T01:14:46.413Z,36.63
2023-05-22T01:15:26.713Z,38.92
2023-05-22T01:16:07.701Z,37.15
2023-05-22T01:16:46.954Z,36.80
2023-05-22T01:17:24.935Z,37.40
2023-05-22T01:18:06.243Z,34.40
2023-05-22T01:18:42.674Z,35.63
2023-05-22T01:19:24.139Z,34.92
2023-05-22T01:20:07.228Z,36.20
2023-05-22T01:20:51.491Z,36.63
2023-05-22T01:21:26.893Z,39.30
2023-05-22T01:22:25.307Z,37.97
2023-05-22T01:23:16.459Z,44.03
2023-05-22T01:23:54.364Z,42.45
2023-05-22T01:24:52.078Z,37.83
2023-05-22T01:25:43.338Z,40.33
2023-05-22T01:26:22.380Z,39.25
2023-05-22T01:26:54.734Z,35.22
2023-05-22T01:27:45.941Z,32.70
2023-05-22T01:28:31.095Z,35.10
2023-05-22T01:29:15.461Z,36.63
2023-05-22T01:30:03.097Z,36.45
2023-05-22T01:30:54.560Z,38.30
2023-05-22T01:31:27.762Z,39.05
2023-05-22T01:32:02.610Z,35.03
2023-05-22T01:32:35.187Z,31.05
2023-05-22T01:33:08.768Z,30.05
2023-05-22T01:33:47.031Z,29.95
2023-05-22T01:34:20.453Z,32.72
2023-05-22T01:34:54.357Z,32.45
2023-05-22T01:35:28.581Z,32.40
2023-05-22T01:36:01.589Z,31.13
2023-05-22T01:36:37.575Z,30.30
2023-05-22T01:37:10.221Z,31.65
2023-05-22T01:37:42.957Z,29.83
2023-05-22T01:38:16.055Z,28.55
2023-05-22T01:38:49.346Z,28.77
2023-05-22T01:39:22.132Z,28.40
2023-05-22T01:39:54.944Z,27.58
2023-05-22T01:40:27.492Z,27.27
2023-05-22T01:40:59.930Z,26.93
2023-05-22T01:41:35.291Z,27.42
2023-05-22T01:42:09.130Z,32.38
2023-05-22T01:42:42.022Z,31.33
2023-05-22T01:43:15.381Z,30.75
2023-05-22T01:43:47.945Z,29.17
2023-05-22T01:44:20.664Z,28.30
2023-05-22T01:44:54.209Z,28.17
2023-05-22T01:45:27.756Z,29.10
2023-05-22T01:46:00.408Z,27.27
2023-05-22T01:46:33.246Z,28.03
2023-05-22T01:47:06.174Z,25.98
2023-05-22T01:47:38.763Z,26.15
2023-05-22T01:48:12.303Z,27.15
2023-05-22T01:48:44.998Z,27.33
2023-05-22T01:49:19.813Z,29.88
2023-05-22T01:49:52.724Z,29.95
2023-05-22T01:50:26.755Z,28.00
2023-05-22T01:51:04.302Z,28.60
2023-05-22T01:51:45.890Z,31.08
2023-05-22T01:52:27.249Z,37.33
2023-05-22T01:53:08.021Z,38.75
2023-05-22T01:53:45.312Z,38.15
2023-05-22T01:54:20.534Z,37.10
2023-05-22T01:54:59.255Z,37.38
2023-05-22T01:55:40.794Z,37.92
2023-05-22T01:56:15.115Z,38.83
2023-05-22T01:56:55.978Z,36.13
2023-05-22T01:57:51.026Z,39.75
2023-05-22T01:58:26.469Z,44.55
2023-05-22T01:59:04.634Z,41.23
2023-05-22T01:59:45.687Z,40.25
2023-05-22T02:00:19.860Z,40.83
2023-05-22T02:00:56.972Z,41.08
2023-05-22T02:01:49.673Z,45.08
2023-05-22T02:02:43.083Z,46.78
2023-05-22T02:03:35.682Z,46.47
2023-05-22T02:04:27.612Z,46.70
2023-05-22T02:05:19.483Z,47.00
2023-05-22T02:05:53.461Z,42.28
2023-05-22T02:06:27.940Z,39.63
2023-05-22T02:07:01.836Z,38.42
2023-05-22T02:07:36.955Z,37.58
2023-05-22T02:08:11.052Z,38.95
2023-05-22T02:08:46.961Z,37.05
2023-05-22T02:09:19.789Z,35.60
2023-05-22T02:09:52.766Z,35.53
2023-05-22T02:10:26.322Z,35.58
2023-05-22T02:11:00.288Z,37.05
2023-05-22T02:11:33.108Z,37.47
2023-05-22T02:12:05.957Z,36.33
2023-05-22T02:12:38.856Z,38.13
2023-05-22T02:13:11.424Z,37.80
2023-05-22T02:13:43.902Z,36.38
2023-05-22T02:14:18.137Z,37.33
2023-05-22T02:14:50.704Z,37.03
2023-05-22T02:15:23.026Z,38.03
2023-05-22T02:15:56.339Z,36.92
2023-05-22T02:16:30.477Z,37.50
2023-05-22T02:17:03.657Z,37.20
2023-05-22T02:17:42.942Z,37.40
2023-05-22T02:18:15.562Z,39.40
2023-05-22T02:18:49.018Z,38.95
2023-05-22T02:19:21.840Z,38.35
2023-05-22T02:19:56.003Z,38.88
2023-05-22T02:20:28.542Z,37.97
2023-05-22T02:21:00.921Z,37.08
2023-05-22T02:21:36.758Z,36.97
2023-05-22T02:22:11.991Z,37.90
2023-05-22T02:22:45.556Z,38.70
2023-05-22T02:23:17.913Z,38.57
2023-05-22T02:23:50.275Z,36.78
2023-05-22T02:24:23.876Z,37.30
2023-05-22T02:24:57.177Z,37.13
2023-05-22T02:25:29.652Z,37.00
2023-05-22T02:26:02.013Z,34.33
2023-05-22T02:26:34.402Z,29.10
2023-05-22T02:27:07.837Z,35.80
2023-05-22T02:27:43.676Z,35.78
2023-05-22T02:28:16.511Z,34.70
2023-05-22T02:28:51.182Z,36.90
2023-05-22T02:29:23.837Z,37.17
2023-05-22T02:29:56.396Z,37.25
2023-05-22T02:30:28.819Z,27.65
2023-05-22T02:31:04.036Z,35.25
2023-05-22T02:31:36.513Z,37.72
2023-05-22T02:32:09.401Z,37.75
2023-05-22T02:32:42.341Z,37.42
2023-05-22T02:33:18.297Z,37.42
2023-05-22T02:33:50.694Z,38.90
2023-05-22T02:34:23.058Z,38.13
2023-05-22T02:34:55.454Z,38.85
2023-05-22T02:35:28.507Z,39.67
2023-05-22T02:36:01.072Z,40.50
2023-05-22T02:36:33.552Z,40.42
2023-05-22T02:37:06.258Z,39.58
2023-05-22T02:37:39.082Z,40.42
2023-05-22T02:38:12.379Z,39.10
2023-05-22T02:38:44.822Z,40.00
2023-05-22T02:39:20.008Z,40.83
2023-05-22T02:39:52.828Z,42.10
2023-05-22T02:40:25.191Z,40.83
2023-05-22T02:40:57.916Z,41.30
2023-05-22T02:41:30.566Z,40.55
2023-05-22T02:42:03.235Z,40.95
2023-05-22T02:42:35.763Z,40.05
2023-05-22T02:43:08.164Z,41.30
2023-05-22T02:43:41.764Z,40.90
2023-05-22T02:44:14.089Z,41.22
2023-05-22T02:44:46.453Z,40.22
2023-05-22T02:45:18.915Z,40.90
2023-05-22T02:45:51.645Z,40.75
2023-05-22T02:46:24.160Z,41.00
2023-05-22T02:46:56.545Z,41.03
2023-05-22T02:47:29.483Z,40.42
2023-05-22T02:48:03.933Z,39.85
2023-05-22T02:48:37.680Z,42.08
2023-05-22T02:49:10.084Z,41.65
2023-05-22T02:49:43.024Z,40.80
2023-05-22T02:50:15.875Z,41.13
2023-05-22T02:50:49.172Z,40.40
2023-05-22T02:51:21.575Z,40.38
2023-05-22T02:51:54.382Z,40.33
2023-05-22T02:52:28.603Z,39.97
2023-05-22T02:53:01.342Z,39.55
2023-05-22T02:53:40.353Z,39.38
2023-05-22T02:54:12.736Z,43.80
2023-05-22T02:54:45.141Z,43.88
2023-05-22T02:55:17.545Z,42.63
2023-05-22T02:55:49.921Z,41.38
2023-05-22T02:56:22.329Z,41.13
2023-05-22T02:56:54.752Z,40.28
2023-05-22T02:57:27.328Z,39.58
2023-05-22T02:57:59.834Z,39.25
2023-05-22T02:58:32.335Z,39.97
2023-05-22T02:59:05.120Z,38.42
2023-05-22T02:59:37.775Z,39.67
2023-05-22T03:00:11.819Z,38.70
2023-05-22T03:00:44.907Z,40.35
2023-05-22T03:01:17.317Z,40.58
2023-05-22T03:01:49.776Z,42.60
2023-05-22T03:02:22.110Z,41.60
2023-05-22T03:02:54.599Z,41.55
2023-05-22T03:03:27.157Z,40.85
2023-05-22T03:03:59.787Z,41.25
2023-05-22T03:04:33.159Z,36.95
2023-05-22T03:05:06.376Z,40.97
2023-05-22T03:05:38.758Z,40.40
2023-05-22T03:06:13.298Z,41.17
2023-05-22T03:06:46.559Z,38.30
2023-05-22T03:07:20.502Z,35.50
2023-05-22T03:07:53.143Z,44.45
2023-05-22T03:08:28.540Z,44.42
2023-05-22T03:09:01.389Z,45.92
2023-05-22T03:09:33.797Z,44.15
2023-05-22T03:10:07.285Z,42.65
2023-05-22T03:10:39.885Z,42.58
2023-05-22T03:11:13.144Z,42.10
2023-05-22T03:11:45.816Z,42.42
2023-05-22T03:12:18.226Z,42.03
2023-05-22T03:12:52.206Z,41.83
2023-05-22T03:13:25.228Z,41.65
2023-05-22T03:13:57.939Z,41.67
2023-05-22T03:14:30.462Z,41.88
2023-05-22T03:15:03.780Z,41.70
2023-05-22T03:15:37.351Z,41.63
2023-05-22T03:16:17.169Z,44.28
2023-05-22T03:16:52.500Z,44.20
2023-05-22T03:17:25.045Z,43.40
2023-05-22T03:17:57.683Z,43.17
2023-05-22T03:18:30.304Z,43.00
2023-05-22T03:19:09.636Z,42.33
2023-05-22T03:19:42.210Z,44.75
2023-05-22T03:20:18.494Z,45.03
2023-05-22T03:20:51.426Z,45.42
2023-05-22T03:21:24.260Z,43.17
2023-05-22T03:21:57.774Z,43.40
2023-05-22T03:22:30.092Z,43.30
2023-05-22T03:23:02.556Z,42.95
2023-05-22T03:23:35.123Z,40.80
2023-05-22T03:24:07.776Z,41.30
2023-05-22T03:24:40.199Z,39.80
2023-05-22T03:25:13.364Z,40.63
2023-05-22T03:25:46.435Z,41.95
2023-05-22T03:26:18.948Z,40.63
2023-05-22T03:26:51.767Z,40.20
2023-05-22T03:27:30.986Z,42.78
2023-05-22T03:28:03.415Z,41.90
2023-05-22T03:28:39.852Z,43.22
2023-05-22T03:29:12.513Z,41.60
2023-05-22T03:29:46.990Z,42.73
2023-05-22T03:30:20.457Z,41.33
2023-05-22T03:31:03.936Z,44.92
2023-05-22T03:31:44.347Z,45.75
2023-05-22T03:32:19.598Z,46.58
2023-05-22T03:32:53.500Z,43.55
2023-05-22T03:33:27.049Z,43.85
2023-05-22T03:34:00.288Z,43.03
2023-05-22T03:34:33.094Z,43.03
2023-05-22T03:35:06.598Z,42.78
2023-05-22T03:35:39.526Z,43.50
2023-05-22T03:36:12.304Z,43.58
2023-05-22T03:36:45.386Z,43.05
2023-05-22T03:37:19.830Z,44.65
2023-05-22T03:37:52.285Z,44.83
2023-05-22T03:38:25.017Z,44.45
2023-05-22T03:38:57.941Z,44.92
2023-05-22T03:39:30.316Z,44.65
2023-05-22T03:40:07.926Z,45.85
2023-05-22T03:40:40.758Z,45.75
2023-05-22T03:41:14.421Z,45.20
2023-05-22T03:41:46.922Z,44.08
2023-05-22T03:42:19.363Z,44.28
2023-05-22T03:42:52.432Z,43.88
2023-05-22T03:43:24.774Z,44.95
2023-05-22T03:43:58.021Z,43.40
2023-05-22T03:44:31.503Z,44.10
2023-05-22T03:45:04.390Z,44.22
2023-05-22T03:45:37.387Z,43.90
2023-05-22T03:46:13.122Z,43.80
2023-05-22T03:46:46.263Z,44.57
2023-05-22T03:47:18.641Z,44.28
2023-05-22T03:47:51.903Z,45.17
2023-05-22T03:48:24.358Z,45.58
2023-05-22T03:48:57.247Z,44.80
2023-05-22T03:49:30.734Z,44.25
2023-05-22T03:50:03.395Z,43.95
2023-05-22T03:50:35.942Z,44.95
2023-05-22T03:51:08.304Z,44.75
2023-05-22T03:51:40.801Z,43.47
2023-05-22T03:52:13.300Z,44.33
2023-05-22T03:52:45.897Z,44.55
2023-05-22T03:53:18.251Z,45.70
2023-05-22T03:53:50.804Z,46.33
2023-05-22T03:54:23.326Z,46.08
2023-05-22T03:54:55.841Z,45.85
2023-05-22T03:55:28.259Z,45.00
2023-05-22T03:56:00.734Z,45.05
2023-05-22T03:56:33.130Z,45.67
2023-05-22T03:57:05.838Z,45.17
2023-05-22T03:57:38.211Z,45.90
2023-05-22T03:58:11.326Z,44.67
2023-05-22T03:58:44.194Z,45.20
2023-05-22T03:59:16.726Z,45.72
2023-05-22T03:59:49.092Z,46.15
2023-05-22T04:00:22.050Z,45.17
2023-05-22T04:00:55.741Z,46.00
2023-05-22T04:01:28.251Z,45.85
2023-05-22T04:02:01.975Z,45.95
2023-05-22T04:02:34.547Z,45.60
2023-05-22T04:03:07.633Z,46.10
2023-05-22T04:03:40.198Z,45.55
2023-05-22T04:04:12.813Z,44.97
2023-05-22T04:04:46.568Z,46.03
2023-05-22T04:05:19.111Z,46.58
2023-05-22T04:05:52.033Z,45.55
2023-05-22T04:06:26.191Z,46.83
2023-05-22T04:07:00.505Z,46.58
2023-05-22T04:07:32.889Z,47.78
2023-05-22T04:08:05.438Z,47.03
2023-05-22T04:08:37.884Z,47.03
2023-05-22T04:09:12.024Z,45.92
2023-05-22T04:09:44.413Z,48.92
2023-05-22T04:10:17.006Z,48.97
2023-05-22T04:10:49.454Z,48.10
2023-05-22T04:11:22.378Z,46.90
2023-05-22T04:11:56.221Z,47.60
2023-05-22T04:12:28.821Z,48.67
2023-05-22T04:13:01.633Z,50.10
2023-05-22T04:13:34.171Z,50.38
2023-05-22T04:14:06.846Z,50.77
2023-05-22T04:14:39.319Z,48.85
2023-05-22T04:15:12.029Z,49.90
2023-05-22T04:15:47.073Z,52.00
2023-05-22T04:16:19.695Z,52.13
2023-05-22T04:16:52.195Z,52.20
2023-05-22T04:17:26.323Z,52.28
2023-05-22T04:17:58.710Z,53.28
2023-05-22T04:18:33.680Z,54.22
2023-05-22T04:19:06.261Z,55.03
2023-05-22T04:19:38.869Z,55.60
2023-05-22T04:20:12.277Z,55.58
2023-05-22T04:20:44.626Z,59.08
2023-05-22T04:21:17.746Z,64.30
2023-05-22T04:21:51.503Z,67.63
2023-05-22T04:22:24.062Z,216.32
2023-05-22T04:22:57.160Z,57.30
2023-05-22T04:23:29.610Z,10.40
2023-05-22T04:24:02.875Z,10.05
2023-05-22T04:24:39.983Z,10.05
2023-05-22T04:25:12.313Z,10.67
2023-05-22T04:25:45.126Z,9.68
2023-05-22T04:26:18.392Z,9.50
2023-05-22T04:26:51.185Z,10.48
2023-05-22T04:27:23.765Z,9.85
2023-05-22T04:27:56.333Z,9.25
2023-05-22T04:28:30.579Z,9.73
2023-05-22T04:29:04.025Z,9.57
2023-05-22T04:29:41.832Z,9.32
2023-05-22T04:30:17.798Z,9.77
2023-05-22T04:30:50.398Z,9.60
2023-05-22T04:31:24.164Z,9.32
2023-05-22T04:31:56.938Z,9.55
2023-05-22T04:32:29.976Z,9.90
2023-05-22T04:33:02.762Z,9.63
2023-05-22T04:33:36.807Z,9.02
2023-05-22T04:34:13.371Z,9.40
2023-05-22T04:34:47.607Z,9.20
2023-05-22T04:35:23.035Z,9.15
2023-05-22T04:35:55.540Z,8.82
2023-05-22T04:36:28.146Z,9.10
2023-05-22T04:37:00.647Z,9.02
2023-05-22T04:37:33.137Z,8.88
2023-05-22T04:38:06.461Z,9.40
2023-05-22T04:38:38.821Z,8.95
2023-05-22T04:39:11.577Z,8.15
2023-05-22T04:39:44.472Z,8.68
2023-05-22T04:40:17.032Z,9.30
2023-05-22T04:40:50.538Z,9.30
2023-05-22T04:41:26.754Z,9.02
2023-05-22T04:42:06.016Z,9.10
2023-05-22T04:42:39.319Z,8.57
2023-05-22T04:43:12.920Z,8.48
2023-05-22T04:43:45.383Z,8.88
2023-05-22T04:44:18.156Z,8.30
2023-05-22T04:44:53.598Z,8.50
2023-05-22T04:45:26.903Z,8.98
2023-05-22T04:45:59.427Z,8.65
2023-05-22T04:46:31.933Z,8.75
2023-05-22T04:47:07.444Z,8.65
2023-05-22T04:47:41.839Z,8.43
2023-05-22T04:48:16.015Z,8.70
2023-05-22T04:48:48.600Z,9.30
2023-05-22T04:49:21.609Z,8.43
2023-05-22T04:49:53.963Z,8.85
2023-05-22T04:50:26.530Z,8.40
2023-05-22T04:50:58.988Z,8.48
2023-05-22T04:51:33.175Z,8.30
2023-05-22T04:52:23.939Z,8.85
2023-05-22T04:53:14.859Z,9.55
2023-05-22T04:54:05.995Z,8.83
2023-05-22T04:54:58.724Z,8.57
2023-05-22T04:55:51.737Z,9.02
2023-05-22T04:56:42.423Z,9.02
2023-05-22T04:57:33.223Z,8.55
2023-05-22T04:58:24.308Z,8.13
2023-05-22T04:59:16.602Z,8.35
2023-05-22T04:59:49.262Z,7.70
2023-05-22T05:00:26.686Z,8.63
2023-05-22T05:00:59.452Z,8.05
2023-05-22T05:01:33.670Z,8.33
2023-05-22T05:02:06.303Z,8.50
2023-05-22T05:02:38.763Z,8.25
2023-05-22T05:03:11.975Z,9.40
2023-05-22T05:03:45.197Z,8.50
2023-05-22T05:04:19.935Z,8.70
2023-05-22T05:04:53.400Z,8.90
2023-05-22T05:05:26.266Z,8.43
2023-05-22T05:06:01.106Z,9.38
2023-05-22T05:06:35.238Z,8.63
2023-05-22T05:07:09.223Z,8.47
2023-05-22T05:07:43.757Z,8.20
2023-05-22T05:08:16.166Z,8.23
2023-05-22T05:08:49.958Z,8.95
2023-05-22T05:09:22.379Z,8.77
2023-05-22T05:09:55.138Z,8.20
2023-05-22T05:10:27.491Z,8.52
2023-05-22T05:11:00.070Z,9.10
2023-05-22T05:11:32.876Z,8.75
2023-05-22T05:12:05.504Z,8.32
2023-05-22T05:12:37.978Z,8.50
2023-05-22T05:13:10.939Z,8.27
2023-05-22T05:13:44.882Z,8.43
2023-05-22T05:14:17.604Z,8.90
2023-05-22T05:14:50.185Z,8.50
2023-05-22T05:15:24.057Z,9.05
2023-05-22T05:15:58.023Z,8.98
2023-05-22T05:16:30.438Z,8.02
2023-05-22T05:17:02.927Z,8.40
2023-05-22T05:17:35.835Z,8.25
2023-05-22T05:18:08.398Z,8.47
2023-05-22T05:18:40.804Z,8.48
2023-05-22T05:19:13.523Z,8.68
2023-05-22T05:19:46.067Z,8.55
2023-05-22T05:20:18.406Z,8.50
2023-05-22T05:20:50.772Z,8.25
2023-05-22T05:21:23.446Z,8.55
2023-05-22T05:21:55.969Z,8.23
2023-05-22T05:22:29.356Z,9.02
2023-05-22T05:23:02.182Z,8.88
2023-05-22T05:23:34.578Z,9.13
2023-05-22T05:24:07.013Z,8.63
2023-05-22T05:24:39.674Z,8.70
2023-05-22T05:25:12.725Z,9.02
2023-05-22T05:25:45.301Z,9.20
2023-05-22T05:26:17.798Z,8.35
2023-05-22T05:26:51.133Z,8.38
2023-05-22T05:27:25.037Z,7.95
2023-05-22T05:27:58.572Z,8.75
2023-05-22T05:28:31.130Z,8.43
2023-05-22T05:29:03.539Z,8.23
2023-05-22T05:29:46.921Z,9.05
2023-05-22T05:30:32.363Z,9.15
2023-05-22T05:31:14.843Z,8.90
2023-05-22T05:32:14.197Z,8.85
2023-05-22T05:32:57.346Z,7.93
2023-05-22T05:33:37.441Z,8.48
2023-05-22T05:34:33.105Z,8.65
2023-05-22T05:35:08.793Z,8.65
2023-05-22T05:35:52.784Z,8.05
2023-05-22T05:36:29.445Z,8.57
2023-05-22T05:37:03.183Z,7.88
2023-05-22T05:37:36.195Z,8.52
2023-05-22T05:38:10.574Z,8.77
2023-05-22T05:38:45.136Z,8.85
2023-05-22T05:39:18.726Z,9.13
2023-05-22T05:39:51.251Z,8.10
2023-05-22T05:40:23.601Z,8.82
2023-05-22T05:40:57.536Z,8.25
2023-05-22T05:41:29.863Z,7.00
2023-05-22T05:42:07.923Z,8.60
2023-05-22T05:42:40.287Z,8.30
2023-05-22T05:43:15.902Z,8.68
2023-05-22T05:43:49.277Z,8.65
2023-05-22T05:44:21.985Z,8.88
2023-05-22T05:44:54.579Z,8.18
2023-05-22T05:45:30.198Z,8.48
2023-05-22T05:46:03.104Z,8.20
2023-05-22T05:46:36.138Z,7.35
2023-05-22T05:47:09.060Z,7.85
2023-05-22T05:47:41.673Z,8.03
2023-05-22T05:48:14.240Z,7.95
2023-05-22T05:48:50.380Z,8.57
2023-05-22T05:49:22.816Z,8.88
2023-05-22T05:49:56.342Z,8.43
2023-05-22T05:50:28.738Z,8.90
2023-05-22T05:51:01.519Z,8.38
2023-05-22T05:51:38.413Z,8.63
2023-05-22T05:52:11.210Z,8.75
2023-05-22T05:52:43.960Z,8.30
2023-05-22T05:53:22.161Z,8.53
2023-05-22T05:53:59.907Z,8.38
2023-05-22T05:54:32.308Z,8.90
2023-05-22T05:55:09.911Z,8.77
2023-05-22T05:55:42.624Z,9.02
2023-05-22T05:56:15.533Z,7.75
2023-05-22T05:56:48.310Z,8.13
2023-05-22T05:57:20.794Z,8.05
2023-05-22T05:57:54.059Z,8.02
2023-05-22T05:58:33.693Z,8.35
2023-05-22T05:59:35.325Z,8.23
2023-05-22T06:00:26.617Z,8.10
2023-05-22T06:01:00.197Z,8.60
2023-05-22T06:01:34.026Z,9.05
2023-05-22T06:02:06.795Z,8.30
2023-05-22T06:02:40.039Z,8.23
2023-05-22T06:03:18.181Z,8.15
2023-05-22T06:04:15.206Z,8.32
2023-05-22T06:04:49.922Z,8.02
2023-05-22T06:05:24.243Z,8.25
2023-05-22T06:06:03.668Z,8.70
2023-05-22T06:07:02.243Z,8.30
2023-05-22T06:07:43.716Z,8.27
2023-05-22T06:08:16.925Z,9.10
2023-05-22T06:08:49.882Z,7.85
2023-05-22T06:09:22.653Z,8.55
2023-05-22T06:10:13.846Z,8.55
2023-05-22T06:10:59.786Z,8.60
2023-05-22T06:11:42.928Z,8.45
2023-05-22T06:12:15.665Z,8.88
2023-05-22T06:12:50.376Z,8.03
2023-05-22T06:13:22.876Z,8.32
2023-05-22T06:13:56.061Z,8.55
2023-05-22T06:14:28.562Z,8.98
2023-05-22T06:15:01.118Z,8.60
2023-05-22T06:15:33.636Z,8.60
2023-05-22T06:16:06.901Z,8.82
2023-05-22T06:16:40.895Z,8.07
2023-05-22T06:17:13.366Z,8.73
2023-05-22T06:17:47.774Z,7.68
2023-05-22T06:18:20.400Z,8.37
2023-05-22T06:18:53.044Z,8.63
2023-05-22T06:19:25.681Z,8.68
2023-05-22T06:19:58.360Z,8.48
2023-05-22T06:20:30.952Z,7.85
2023-05-22T06:21:03.484Z,8.15
2023-05-22T06:21:36.694Z,8.15
2023-05-22T06:22:09.429Z,8.35
2023-05-22T06:22:43.983Z,7.70
2023-05-22T06:23:16.570Z,8.13
2023-05-22T06:23:49.945Z,8.73
2023-05-22T06:24:22.475Z,8.10
2023-05-22T06:24:56.221Z,8.75
2023-05-22T06:25:31.280Z,8.07
2023-05-22T06:26:05.325Z,8.05
2023-05-22T06:26:37.885Z,7.65
2023-05-22T06:27:10.263Z,8.27
2023-05-22T06:27:42.966Z,8.77
2023-05-22T06:28:15.373Z,8.18
2023-05-22T06:28:47.788Z,8.10
2023-05-22T06:29:20.122Z,8.40
2023-05-22T06:29:54.054Z,8.10
2023-05-22T06:30:38.971Z,7.72
2023-05-22T06:31:14.611Z,8.15
2023-05-22T06:31:50.156Z,8.15
2023-05-22T06:32:24.900Z,8.05
2023-05-22T06:32:58.989Z,8.00
2023-05-22T06:33:32.434Z,8.77
2023-05-22T06:34:05.020Z,8.88
2023-05-22T06:34:37.531Z,8.38
2023-05-22T06:35:10.603Z,8.67
2023-05-22T06:35:44.373Z,8.68
2023-05-22T06:36:17.693Z,7.88
2023-05-22T06:36:52.904Z,8.82
2023-05-22T06:37:31.483Z,8.45
2023-05-22T06:38:04.187Z,8.25
2023-05-22T06:38:38.240Z,8.13
2023-05-22T06:39:12.899Z,8.35
2023-05-22T06:40:08.789Z,8.48
2023-05-22T06:41:00.187Z,7.50
2023-05-22T06:41:33.872Z,8.37
2023-05-22T06:42:06.733Z,8.27
2023-05-22T06:43:02.055Z,8.55
2023-05-22T06:43:34.643Z,8.43
2023-05-22T06:44:13.565Z,8.75
2023-05-22T06:44:46.033Z,7.82
2023-05-22T06:45:20.087Z,8.30
2023-05-22T06:46:07.484Z,7.82
2023-05-22T06:46:49.322Z,8.60
2023-05-22T06:47:27.959Z,7.95
2023-05-22T06:48:00.360Z,8.17
2023-05-22T06:48:36.307Z,8.57
2023-05-22T06:49:16.483Z,8.10
2023-05-22T06:49:52.011Z,8.15
2023-05-22T06:50:25.021Z,8.60
2023-05-22T06:50:57.678Z,7.28
2023-05-22T06:51:32.039Z,8.02
2023-05-22T06:52:12.632Z,8.20
2023-05-22T06:52:45.358Z,8.25
2023-05-22T06:53:18.128Z,8.20
2023-05-22T06:53:50.426Z,8.37
2023-05-22T06:54:28.940Z,8.18
2023-05-22T06:55:05.867Z,7.78
2023-05-22T06:55:46.608Z,9.27
2023-05-22T06:56:27.277Z,8.38
2023-05-22T06:57:05.405Z,7.75
2023-05-22T06:57:37.752Z,8.18
2023-05-22T06:58:10.595Z,8.00
2023-05-22T06:58:43.025Z,8.55
2023-05-22T06:59:16.071Z,7.95
2023-05-22T07:00:20.882Z,8.23
2023-05-22T07:01:14.447Z,7.70
2023-05-22T07:01:54.543Z,8.13
2023-05-22T07:02:36.839Z,8.02
2023-05-22T07:03:25.735Z,8.13
2023-05-22T07:04:23.854Z,8.00
2023-05-22T07:05:05.554Z,7.82
2023-05-22T07:05:52.410Z,8.00
2023-05-22T07:06:24.979Z,7.43
2023-05-22T07:06:57.502Z,7.70
2023-05-22T07:07:30.192Z,7.67
2023-05-22T07:08:03.140Z,7.90
2023-05-22T07:08:36.398Z,7.57
2023-05-22T07:09:09.269Z,8.75
2023-05-22T07:09:41.640Z,8.30
2023-05-22T07:10:14.545Z,7.80
2023-05-22T07:10:46.935Z,7.65
2023-05-22T07:11:20.040Z,8.35
2023-05-22T07:11:52.362Z,7.85
2023-05-22T07:12:28.110Z,8.10
2023-05-22T07:13:01.232Z,7.90
2023-05-22T07:13:34.437Z,7.90
2023-05-22T07:14:08.091Z,8.63
2023-05-22T07:14:40.948Z,8.43
2023-05-22T07:15:15.073Z,8.50
2023-05-22T07:15:53.515Z,8.13
2023-05-22T07:16:26.293Z,8.25
2023-05-22T07:16:59.231Z,8.02
2023-05-22T07:17:36.576Z,8.25
2023-05-22T07:18:10.520Z,7.82
2023-05-22T07:18:46.375Z,7.57
2023-05-22T07:19:19.600Z,7.50
2023-05-22T07:19:52.119Z,7.70
2023-05-22T07:20:26.541Z,8.70
2023-05-22T07:21:14.419Z,7.75
2023-05-22T07:21:48.032Z,7.78
2023-05-22T07:22:23.762Z,7.78
2023-05-22T07:22:56.405Z,7.20
2023-05-22T07:23:28.924Z,7.78
2023-05-22T07:24:03.642Z,7.65
2023-05-22T07:24:36.021Z,8.00
2023-05-22T07:25:09.551Z,7.68
2023-05-22T07:25:42.885Z,7.82
2023-05-22T07:26:15.407Z,7.93
2023-05-22T07:26:54.712Z,7.28
2023-05-22T07:27:27.037Z,6.95
2023-05-22T07:28:02.294Z,7.82
2023-05-22T07:28:35.324Z,7.30
2023-05-22T07:29:14.407Z,8.32
2023-05-22T07:29:47.177Z,7.60
2023-05-22T07:30:20.009Z,8.37
2023-05-22T07:30:53.011Z,7.25
2023-05-22T07:31:25.920Z,7.78
2023-05-22T07:32:00.414Z,7.32
2023-05-22T07:32:33.901Z,7.30
2023-05-22T07:33:08.288Z,7.20
2023-05-22T07:33:40.997Z,7.80
2023-05-22T07:34:13.302Z,7.70
2023-05-22T07:34:46.091Z,7.45
2023-05-22T07:35:18.571Z,7.25